sensor_id;sensor_type;location;lat;lon;timestamp;temperature;humidity
68051;DHT22;54839;51.364;7.246;2023-03-23T00:01:02;10.40;99.90
68051;DHT22;54839;51.364;7.246;2023-03-23T00:03:28;10.40;99.90
68051;DHT22;54839;51.364;7.246;2023-03-23T00:06:03;10.50;99.90
68051;DHT22;54839;51.364;7.246;2023-03-23T00:08:31;10.50;99.90
68051;DHT22;54839;51.364;7.246;2023-03-23T00:10:57;10.50;99.90
68051;DHT22;54839;51.364;7.246;2023-03-23T00:13:25;10.60;99.90
68051;DHT22;54839;51.364;7.246;2023-03-23T00:15:51;10.60;99.90
68051;DHT22;54839;51.364;7.246;2023-03-23T00:18:21;10.60;99.90
68051;DHT22;54839;51.364;7.246;2023-03-23T00:20:49;10.70;99.90
68051;DHT22;54839;51.364;7.246;2023-03-23T00:23:17;10.80;99.90
68051;DHT22;54839;51.364;7.246;2023-03-23T00:25:47;10.80;99.90
68051;DHT22;54839;51.364;7.246;2023-03-23T00:28:13;10.90;99.90
68051;DHT22;54839;51.364;7.246;2023-03-23T00:30:40;10.90;99.90
68051;DHT22;54839;51.364;7.246;2023-03-23T00:33:07;10.80;99.90
68051;DHT22;54839;51.364;7.246;2023-03-23T00:35:33;10.90;99.90
68051;DHT22;54839;51.364;7.246;2023-03-23T00:38:01;10.90;99.90
68051;DHT22;54839;51.364;7.246;2023-03-23T00:40:27;10.90;99.90
68051;DHT22;54839;51.364;7.246;2023-03-23T00:42:53;10.90;99.90
68051;DHT22;54839;51.364;7.246;2023-03-23T00:45:19;10.90;99.90
68051;DHT22;54839;51.364;7.246;2023-03-23T00:47:44;10.90;99.90
68051;DHT22;54839;51.364;7.246;2023-03-23T00:50:16;10.90;99.90
68051;DHT22;54839;51.364;7.246;2023-03-23T00:52:43;11.00;99.90
68051;DHT22;54839;51.364;7.246;2023-03-23T00:55:08;11.10;99.90
68051;DHT22;54839;51.364;7.246;2023-03-23T00:57:34;11.00;99.90
68051;DHT22;54839;51.364;7.246;2023-03-23T01:00:00;11.20;99.90
68051;DHT22;54839;51.364;7.246;2023-03-23T01:02:26;11.20;99.90
68051;DHT22;54839;51.364;7.246;2023-03-23T01:04:51;11.30;99.90
68051;DHT22;54839;51.364;7.246;2023-03-23T01:07:19;11.30;99.90
68051;DHT22;54839;51.364;7.246;2023-03-23T01:09:46;11.20;99.90
68051;DHT22;54839;51.364;7.246;2023-03-23T01:12:12;11.30;99.90
68051;DHT22;54839;51.364;7.246;2023-03-23T01:14:38;11.30;99.90
68051;DHT22;54839;51.364;7.246;2023-03-23T01:17:03;11.30;99.90
68051;DHT22;54839;51.364;7.246;2023-03-23T01:19:29;11.20;99.90
68051;DHT22;54839;51.364;7.246;2023-03-23T01:21:55;11.30;99.90
68051;DHT22;54839;51.364;7.246;2023-03-23T01:24:20;11.30;99.90
68051;DHT22;54839;51.364;7.246;2023-03-23T01:26:46;11.10;99.90
68051;DHT22;54839;51.364;7.246;2023-03-23T01:29:12;11.00;99.90
68051;DHT22;54839;51.364;7.246;2023-03-23T01:31:39;11.10;99.90
68051;DHT22;54839;51.364;7.246;2023-03-23T01:34:04;11.10;99.90
68051;DHT22;54839;51.364;7.246;2023-03-23T01:36:30;11.20;99.90
68051;DHT22;54839;51.364;7.246;2023-03-23T01:39:00;11.10;99.90
68051;DHT22;54839;51.364;7.246;2023-03-23T01:41:26;11.00;99.90
68051;DHT22;54839;51.364;7.246;2023-03-23T01:44:01;11.10;99.90
68051;DHT22;54839;51.364;7.246;2023-03-23T01:46:31;11.10;99.90
68051;DHT22;54839;51.364;7.246;2023-03-23T01:48:59;11.10;99.90
68051;DHT22;54839;51.364;7.246;2023-03-23T01:51:27;11.00;99.90
68051;DHT22;54839;51.364;7.246;2023-03-23T01:53:54;10.90;99.90
68051;DHT22;54839;51.364;7.246;2023-03-23T01:56:25;11.00;99.90
68051;DHT22;54839;51.364;7.246;2023-03-23T01:58:54;11.00;99.90
68051;DHT22;54839;51.364;7.246;2023-03-23T02:01:21;10.90;99.90
68051;DHT22;54839;51.364;7.246;2023-03-23T02:03:47;10.90;99.90
68051;DHT22;54839;51.364;7.246;2023-03-23T02:06:14;10.80;99.90
68051;DHT22;54839;51.364;7.246;2023-03-23T02:08:41;10.70;99.90
68051;DHT22;54839;51.364;7.246;2023-03-23T02:11:17;10.70;99.90
68051;DHT22;54839;51.364;7.246;2023-03-23T02:13:44;10.80;99.90
68051;DHT22;54839;51.364;7.246;2023-03-23T02:16:21;10.90;99.90
68051;DHT22;54839;51.364;7.246;2023-03-23T02:27:15;10.70;99.90
68051;DHT22;54839;51.364;7.246;2023-03-23T02:32:32;10.60;99.90
68051;DHT22;54839;51.364;7.246;2023-03-23T02:35:18;10.60;99.90
68051;DHT22;54839;51.364;7.246;2023-03-23T02:37:51;10.60;99.90
68051;DHT22;54839;51.364;7.246;2023-03-23T02:40:24;10.70;99.90
68051;DHT22;54839;51.364;7.246;2023-03-23T02:42:53;10.80;99.90
68051;DHT22;54839;51.364;7.246;2023-03-23T02:45:21;10.70;99.90
68051;DHT22;54839;51.364;7.246;2023-03-23T02:47:52;10.70;99.90
68051;DHT22;54839;51.364;7.246;2023-03-23T02:50:20;10.50;99.90
68051;DHT22;54839;51.364;7.246;2023-03-23T02:52:48;10.50;99.90
68051;DHT22;54839;51.364;7.246;2023-03-23T02:55:15;10.40;99.90
68051;DHT22;54839;51.364;7.246;2023-03-23T02:57:41;10.50;99.90
68051;DHT22;54839;51.364;7.246;2023-03-23T03:00:13;10.50;99.90
68051;DHT22;54839;51.364;7.246;2023-03-23T03:02:43;10.50;99.90
68051;DHT22;54839;51.364;7.246;2023-03-23T03:08:02;10.50;99.90
68051;DHT22;54839;51.364;7.246;2023-03-23T03:10:50;10.40;99.90
68051;DHT22;54839;51.364;7.246;2023-03-23T03:13:36;10.40;99.90
68051;DHT22;54839;51.364;7.246;2023-03-23T03:18:54;10.50;99.90
68051;DHT22;54839;51.364;7.246;2023-03-23T03:21:23;10.50;99.90
68051;DHT22;54839;51.364;7.246;2023-03-23T03:23:54;10.60;99.90
68051;DHT22;54839;51.364;7.246;2023-03-23T03:26:21;10.50;99.90
68051;DHT22;54839;51.364;7.246;2023-03-23T03:28:52;10.60;99.90
68051;DHT22;54839;51.364;7.246;2023-03-23T03:31:26;10.60;99.90
68051;DHT22;54839;51.364;7.246;2023-03-23T03:33:53;10.70;99.90
68051;DHT22;54839;51.364;7.246;2023-03-23T03:36:27;10.70;99.90
68051;DHT22;54839;51.364;7.246;2023-03-23T03:39:03;10.80;99.90
68051;DHT22;54839;51.364;7.246;2023-03-23T03:41:30;10.80;99.90
68051;DHT22;54839;51.364;7.246;2023-03-23T03:43:56;10.80;99.90
68051;DHT22;54839;51.364;7.246;2023-03-23T03:46:21;10.80;99.90
68051;DHT22;54839;51.364;7.246;2023-03-23T03:48:49;10.80;99.90
68051;DHT22;54839;51.364;7.246;2023-03-23T03:51:17;10.90;99.90
68051;DHT22;54839;51.364;7.246;2023-03-23T03:53:42;10.80;99.90
68051;DHT22;54839;51.364;7.246;2023-03-23T03:56:07;10.90;99.90
68051;DHT22;54839;51.364;7.246;2023-03-23T03:58:33;10.90;99.90
68051;DHT22;54839;51.364;7.246;2023-03-23T04:01:02;10.90;99.90
68051;DHT22;54839;51.364;7.246;2023-03-23T04:03:28;10.80;99.90
68051;DHT22;54839;51.364;7.246;2023-03-23T04:05:54;10.90;99.90
68051;DHT22;54839;51.364;7.246;2023-03-23T04:08:21;10.90;99.90
68051;DHT22;54839;51.364;7.246;2023-03-23T04:10:48;10.80;99.90
68051;DHT22;54839;51.364;7.246;2023-03-23T04:13:13;10.90;99.90
68051;DHT22;54839;51.364;7.246;2023-03-23T04:15:39;10.90;99.90
68051;DHT22;54839;51.364;7.246;2023-03-23T04:18:04;10.90;99.90
68051;DHT22;54839;51.364;7.246;2023-03-23T04:20:31;10.90;99.90
68051;DHT22;54839;51.364;7.246;2023-03-23T04:22:56;10.80;99.90
68051;DHT22;54839;51.364;7.246;2023-03-23T04:25:22;10.90;99.90
68051;DHT22;54839;51.364;7.246;2023-03-23T04:27:50;10.80;99.90
68051;DHT22;54839;51.364;7.246;2023-03-23T04:30:20;10.90;99.90
68051;DHT22;54839;51.364;7.246;2023-03-23T04:32:47;10.80;99.90
68051;DHT22;54839;51.364;7.246;2023-03-23T04:35:17;10.80;99.90
68051;DHT22;54839;51.364;7.246;2023-03-23T04:37:43;10.80;99.90
68051;DHT22;54839;51.364;7.246;2023-03-23T04:40:09;10.80;99.90
68051;DHT22;54839;51.364;7.246;2023-03-23T04:42:38;10.90;99.90
68051;DHT22;54839;51.364;7.246;2023-03-23T04:45:06;10.90;99.90
68051;DHT22;54839;51.364;7.246;2023-03-23T04:47:33;10.80;99.90
68051;DHT22;54839;51.364;7.246;2023-03-23T04:50:05;10.80;99.90
68051;DHT22;54839;51.364;7.246;2023-03-23T04:52:32;10.80;99.90
68051;DHT22;54839;51.364;7.246;2023-03-23T04:54:57;10.80;99.90
68051;DHT22;54839;51.364;7.246;2023-03-23T04:57:24;10.80;99.90
68051;DHT22;54839;51.364;7.246;2023-03-23T04:59:52;10.80;99.90
68051;DHT22;54839;51.364;7.246;2023-03-23T05:02:18;10.80;99.90
68051;DHT22;54839;51.364;7.246;2023-03-23T05:04:44;10.90;99.90
68051;DHT22;54839;51.364;7.246;2023-03-23T05:07:11;10.80;99.90
68051;DHT22;54839;51.364;7.246;2023-03-23T05:09:36;10.80;99.90
68051;DHT22;54839;51.364;7.246;2023-03-23T05:12:09;10.80;99.90
68051;DHT22;54839;51.364;7.246;2023-03-23T05:14:35;10.90;99.90
68051;DHT22;54839;51.364;7.246;2023-03-23T05:17:01;10.90;99.90
68051;DHT22;54839;51.364;7.246;2023-03-23T05:19:27;10.90;99.90
68051;DHT22;54839;51.364;7.246;2023-03-23T05:21:56;10.80;99.90
68051;DHT22;54839;51.364;7.246;2023-03-23T05:24:22;10.90;99.90
68051;DHT22;54839;51.364;7.246;2023-03-23T05:26:47;10.90;99.90
68051;DHT22;54839;51.364;7.246;2023-03-23T05:29:17;10.90;99.90
68051;DHT22;54839;51.364;7.246;2023-03-23T05:31:43;10.90;99.90
68051;DHT22;54839;51.364;7.246;2023-03-23T05:34:09;10.90;99.90
68051;DHT22;54839;51.364;7.246;2023-03-23T05:36:35;10.80;99.90
68051;DHT22;54839;51.364;7.246;2023-03-23T05:39:00;10.80;99.90
68051;DHT22;54839;51.364;7.246;2023-03-23T05:41:28;10.90;99.90
68051;DHT22;54839;51.364;7.246;2023-03-23T05:43:54;11.00;99.90
68051;DHT22;54839;51.364;7.246;2023-03-23T05:46:19;11.00;99.90
68051;DHT22;54839;51.364;7.246;2023-03-23T05:48:45;11.10;99.90
68051;DHT22;54839;51.364;7.246;2023-03-23T05:51:11;11.10;99.90
68051;DHT22;54839;51.364;7.246;2023-03-23T05:53:37;11.00;99.90
68051;DHT22;54839;51.364;7.246;2023-03-23T05:56:03;11.00;99.90
68051;DHT22;54839;51.364;7.246;2023-03-23T05:58:29;11.10;99.90
68051;DHT22;54839;51.364;7.246;2023-03-23T06:00:54;11.20;99.90
68051;DHT22;54839;51.364;7.246;2023-03-23T06:03:20;11.30;99.90
68051;DHT22;54839;51.364;7.246;2023-03-23T06:05:46;11.30;99.90
68051;DHT22;54839;51.364;7.246;2023-03-23T06:08:11;11.30;99.90
68051;DHT22;54839;51.364;7.246;2023-03-23T06:10:37;11.20;99.90
68051;DHT22;54839;51.364;7.246;2023-03-23T06:13:04;11.20;99.90
68051;DHT22;54839;51.364;7.246;2023-03-23T06:15:31;11.30;99.90
68051;DHT22;54839;51.364;7.246;2023-03-23T06:18:01;11.30;99.90
68051;DHT22;54839;51.364;7.246;2023-03-23T06:20:28;11.40;99.90
68051;DHT22;54839;51.364;7.246;2023-03-23T06:22:54;11.30;99.90
68051;DHT22;54839;51.364;7.246;2023-03-23T06:25:20;11.30;99.90
68051;DHT22;54839;51.364;7.246;2023-03-23T06:27:45;11.40;99.90
68051;DHT22;54839;51.364;7.246;2023-03-23T06:30:12;11.40;99.90
68051;DHT22;54839;51.364;7.246;2023-03-23T06:32:40;11.50;99.90
68051;DHT22;54839;51.364;7.246;2023-03-23T06:35:06;11.40;99.90
68051;DHT22;54839;51.364;7.246;2023-03-23T06:37:35;11.50;99.90
68051;DHT22;54839;51.364;7.246;2023-03-23T06:40:00;11.50;99.90
68051;DHT22;54839;51.364;7.246;2023-03-23T06:42:26;11.50;99.90
68051;DHT22;54839;51.364;7.246;2023-03-23T06:44:52;11.50;99.90
68051;DHT22;54839;51.364;7.246;2023-03-23T06:47:17;11.60;99.90
68051;DHT22;54839;51.364;7.246;2023-03-23T06:49:43;11.60;99.90
68051;DHT22;54839;51.364;7.246;2023-03-23T06:52:08;11.60;99.90
68051;DHT22;54839;51.364;7.246;2023-03-23T06:54:34;11.60;99.90
68051;DHT22;54839;51.364;7.246;2023-03-23T06:57:00;11.60;99.90
68051;DHT22;54839;51.364;7.246;2023-03-23T06:59:25;11.60;99.90
68051;DHT22;54839;51.364;7.246;2023-03-23T07:01:51;11.70;99.90
68051;DHT22;54839;51.364;7.246;2023-03-23T07:04:17;11.70;99.90
68051;DHT22;54839;51.364;7.246;2023-03-23T07:06:42;11.70;99.90
68051;DHT22;54839;51.364;7.246;2023-03-23T07:09:08;11.70;99.90
68051;DHT22;54839;51.364;7.246;2023-03-23T07:11:33;11.70;99.90
68051;DHT22;54839;51.364;7.246;2023-03-23T07:13:59;11.70;99.90
68051;DHT22;54839;51.364;7.246;2023-03-23T07:16:24;11.70;99.90
68051;DHT22;54839;51.364;7.246;2023-03-23T07:18:51;11.80;99.90
68051;DHT22;54839;51.364;7.246;2023-03-23T07:21:17;11.80;99.90
68051;DHT22;54839;51.364;7.246;2023-03-23T07:23:42;11.90;99.90
68051;DHT22;54839;51.364;7.246;2023-03-23T07:26:08;11.80;99.90
68051;DHT22;54839;51.364;7.246;2023-03-23T07:28:34;11.80;99.90
68051;DHT22;54839;51.364;7.246;2023-03-23T07:30:59;11.80;99.90
68051;DHT22;54839;51.364;7.246;2023-03-23T07:33:25;11.90;99.90
68051;DHT22;54839;51.364;7.246;2023-03-23T07:35:51;12.00;99.90
68051;DHT22;54839;51.364;7.246;2023-03-23T07:38:17;12.10;99.90
68051;DHT22;54839;51.364;7.246;2023-03-23T07:40:42;12.10;99.90
68051;DHT22;54839;51.364;7.246;2023-03-23T07:43:08;12.10;99.90
68051;DHT22;54839;51.364;7.246;2023-03-23T07:45:33;12.20;99.90
68051;DHT22;54839;51.364;7.246;2023-03-23T07:47:59;12.10;99.90
68051;DHT22;54839;51.364;7.246;2023-03-23T07:50:26;12.10;99.90
68051;DHT22;54839;51.364;7.246;2023-03-23T07:52:54;12.20;99.90
68051;DHT22;54839;51.364;7.246;2023-03-23T07:55:20;12.30;99.90
68051;DHT22;54839;51.364;7.246;2023-03-23T07:57:47;12.20;99.90
68051;DHT22;54839;51.364;7.246;2023-03-23T08:00:15;12.20;99.90
68051;DHT22;54839;51.364;7.246;2023-03-23T08:02:47;12.30;99.90
68051;DHT22;54839;51.364;7.246;2023-03-23T08:05:14;12.30;99.90
68051;DHT22;54839;51.364;7.246;2023-03-23T08:07:41;12.50;99.90
68051;DHT22;54839;51.364;7.246;2023-03-23T08:10:08;12.30;99.90
68051;DHT22;54839;51.364;7.246;2023-03-23T08:12:39;12.40;99.90
68051;DHT22;54839;51.364;7.246;2023-03-23T08:15:06;12.40;99.90
68051;DHT22;54839;51.364;7.246;2023-03-23T08:17:32;12.40;99.90
68051;DHT22;54839;51.364;7.246;2023-03-23T08:20:00;12.40;99.90
68051;DHT22;54839;51.364;7.246;2023-03-23T08:22:26;12.50;99.90
68051;DHT22;54839;51.364;7.246;2023-03-23T08:24:51;12.40;99.90
68051;DHT22;54839;51.364;7.246;2023-03-23T08:27:18;12.40;99.90
68051;DHT22;54839;51.364;7.246;2023-03-23T08:29:47;12.60;99.90
68051;DHT22;54839;51.364;7.246;2023-03-23T08:32:13;12.60;99.90
68051;DHT22;54839;51.364;7.246;2023-03-23T08:34:40;12.60;99.90
68051;DHT22;54839;51.364;7.246;2023-03-23T08:37:07;12.50;99.90
68051;DHT22;54839;51.364;7.246;2023-03-23T08:39:33;12.60;99.90
68051;DHT22;54839;51.364;7.246;2023-03-23T08:41:58;12.50;99.90
68051;DHT22;54839;51.364;7.246;2023-03-23T08:44:24;12.60;99.90
68051;DHT22;54839;51.364;7.246;2023-03-23T08:46:50;12.50;99.90
68051;DHT22;54839;51.364;7.246;2023-03-23T08:49:23;12.60;99.90
68051;DHT22;54839;51.364;7.246;2023-03-23T08:51:49;12.60;99.90
68051;DHT22;54839;51.364;7.246;2023-03-23T08:54:15;12.80;99.90
68051;DHT22;54839;51.364;7.246;2023-03-23T08:56:42;12.80;99.90
68051;DHT22;54839;51.364;7.246;2023-03-23T08:59:08;12.80;99.90
68051;DHT22;54839;51.364;7.246;2023-03-23T09:01:34;12.80;99.90
68051;DHT22;54839;51.364;7.246;2023-03-23T09:04:00;12.80;99.90
68051;DHT22;54839;51.364;7.246;2023-03-23T09:06:26;12.80;99.90
68051;DHT22;54839;51.364;7.246;2023-03-23T09:08:53;12.80;99.90
68051;DHT22;54839;51.364;7.246;2023-03-23T09:11:21;13.00;99.90
68051;DHT22;54839;51.364;7.246;2023-03-23T09:13:46;13.00;99.90
68051;DHT22;54839;51.364;7.246;2023-03-23T09:16:12;12.80;99.90
68051;DHT22;54839;51.364;7.246;2023-03-23T09:18:38;13.00;99.90
68051;DHT22;54839;51.364;7.246;2023-03-23T09:21:04;13.00;99.90
68051;DHT22;54839;51.364;7.246;2023-03-23T09:23:30;13.00;99.90
68051;DHT22;54839;51.364;7.246;2023-03-23T09:25:56;13.00;99.90
68051;DHT22;54839;51.364;7.246;2023-03-23T09:28:22;12.90;99.90
68051;DHT22;54839;51.364;7.246;2023-03-23T09:30:47;12.90;99.90
68051;DHT22;54839;51.364;7.246;2023-03-23T09:33:14;13.00;99.90
68051;DHT22;54839;51.364;7.246;2023-03-23T09:35:40;13.30;99.90
68051;DHT22;54839;51.364;7.246;2023-03-23T09:38:08;13.20;99.90
68051;DHT22;54839;51.364;7.246;2023-03-23T09:40:55;13.10;99.90
68051;DHT22;54839;51.364;7.246;2023-03-23T09:44:07;13.10;99.90
68051;DHT22;54839;51.364;7.246;2023-03-23T09:46:57;13.00;99.90
68051;DHT22;54839;51.364;7.246;2023-03-23T09:49:34;13.00;99.90
68051;DHT22;54839;51.364;7.246;2023-03-23T09:52:05;13.30;99.90
68051;DHT22;54839;51.364;7.246;2023-03-23T09:54:40;13.70;99.90
68051;DHT22;54839;51.364;7.246;2023-03-23T09:57:30;13.40;99.90
68051;DHT22;54839;51.364;7.246;2023-03-23T10:00:03;13.30;99.90
68051;DHT22;54839;51.364;7.246;2023-03-23T10:03:00;13.40;99.90
68051;DHT22;54839;51.364;7.246;2023-03-23T10:05:40;13.50;99.90
68051;DHT22;54839;51.364;7.246;2023-03-23T10:08:18;13.60;99.90
68051;DHT22;54839;51.364;7.246;2023-03-23T10:15:46;14.10;99.90
68051;DHT22;54839;51.364;7.246;2023-03-23T10:20:57;13.60;99.90
68051;DHT22;54839;51.364;7.246;2023-03-23T10:23:47;13.60;99.90
68051;DHT22;54839;51.364;7.246;2023-03-23T10:26:33;12.70;99.90
68051;DHT22;54839;51.364;7.246;2023-03-23T10:31:39;11.40;99.90
68051;DHT22;54839;51.364;7.246;2023-03-23T10:34:17;10.60;99.90
68051;DHT22;54839;51.364;7.246;2023-03-23T10:37:54;10.10;99.90
68051;DHT22;54839;51.364;7.246;2023-03-23T10:39:52;9.90;99.90
68051;DHT22;54839;51.364;7.246;2023-03-23T10:42:26;9.80;99.90
68051;DHT22;54839;51.364;7.246;2023-03-23T10:44:52;9.70;99.90
68051;DHT22;54839;51.364;7.246;2023-03-23T10:47:18;9.70;99.90
68051;DHT22;54839;51.364;7.246;2023-03-23T10:49:51;9.70;99.90
68051;DHT22;54839;51.364;7.246;2023-03-23T10:55:02;9.60;99.90
68051;DHT22;54839;51.364;7.246;2023-03-23T10:57:32;9.70;99.90
68051;DHT22;54839;51.364;7.246;2023-03-23T11:00:20;9.60;99.90
68051;DHT22;54839;51.364;7.246;2023-03-23T11:03:04;9.70;99.90
68051;DHT22;54839;51.364;7.246;2023-03-23T11:05:53;9.60;99.90
68051;DHT22;54839;51.364;7.246;2023-03-23T11:08:21;9.60;99.90
68051;DHT22;54839;51.364;7.246;2023-03-23T11:13:19;9.50;99.90
68051;DHT22;54839;51.364;7.246;2023-03-23T11:15:46;9.80;99.90
68051;DHT22;54839;51.364;7.246;2023-03-23T11:18:25;9.70;99.90
68051;DHT22;54839;51.364;7.246;2023-03-23T11:20:57;9.80;99.90
68051;DHT22;54839;51.364;7.246;2023-03-23T11:23:24;9.70;99.90
68051;DHT22;54839;51.364;7.246;2023-03-23T11:28:47;9.80;99.90
68051;DHT22;54839;51.364;7.246;2023-03-23T11:31:16;9.60;99.90
68051;DHT22;54839;51.364;7.246;2023-03-23T11:33:56;9.60;99.90
68051;DHT22;54839;51.364;7.246;2023-03-23T11:36:40;9.40;99.90
68051;DHT22;54839;51.364;7.246;2023-03-23T11:39:28;9.50;99.90
68051;DHT22;54839;51.364;7.246;2023-03-23T11:41:56;9.70;99.90
68051;DHT22;54839;51.364;7.246;2023-03-23T11:44:24;9.70;99.90
68051;DHT22;54839;51.364;7.246;2023-03-23T11:47:22;9.60;99.90
68051;DHT22;54839;51.364;7.246;2023-03-23T11:50:08;9.80;99.90
68051;DHT22;54839;51.364;7.246;2023-03-23T11:52:44;9.80;99.90
68051;DHT22;54839;51.364;7.246;2023-03-23T11:58:10;10.10;99.90
68051;DHT22;54839;51.364;7.246;2023-03-23T12:00:41;10.30;99.90
68051;DHT22;54839;51.364;7.246;2023-03-23T12:06:24;10.60;99.90
68051;DHT22;54839;51.364;7.246;2023-03-23T12:12:11;10.60;99.90
68051;DHT22;54839;51.364;7.246;2023-03-23T12:14:50;10.50;99.90
68051;DHT22;54839;51.364;7.246;2023-03-23T12:20:51;10.20;99.90
68051;DHT22;54839;51.364;7.246;2023-03-23T12:26:29;10.90;99.90
68051;DHT22;54839;51.364;7.246;2023-03-23T12:29:11;11.50;99.90
68051;DHT22;54839;51.364;7.246;2023-03-23T12:34:27;11.60;99.90
68051;DHT22;54839;51.364;7.246;2023-03-23T12:37:21;11.40;99.90
68051;DHT22;54839;51.364;7.246;2023-03-23T12:43:09;11.30;99.90
68051;DHT22;54839;51.364;7.246;2023-03-23T12:48:29;11.70;99.90
68051;DHT22;54839;51.364;7.246;2023-03-23T12:53:44;11.60;99.90
68051;DHT22;54839;51.364;7.246;2023-03-23T12:56:14;11.70;99.90
68051;DHT22;54839;51.364;7.246;2023-03-23T12:58:45;11.80;99.90
68051;DHT22;54839;51.364;7.246;2023-03-23T13:01:25;11.50;99.90
68051;DHT22;54839;51.364;7.246;2023-03-23T13:03:58;11.50;99.90
68051;DHT22;54839;51.364;7.246;2023-03-23T13:06:44;11.20;99.90
68051;DHT22;54839;51.364;7.246;2023-03-23T13:09:15;11.20;99.90
68051;DHT22;54839;51.364;7.246;2023-03-23T13:11:43;11.10;99.90
68051;DHT22;54839;51.364;7.246;2023-03-23T13:14:26;10.80;99.90
68051;DHT22;54839;51.364;7.246;2023-03-23T13:24:52;12.80;99.90
68051;DHT22;54839;51.364;7.246;2023-03-23T13:27:23;14.10;99.90
68051;DHT22;54839;51.364;7.246;2023-03-23T13:29:51;13.90;99.90
68051;DHT22;54839;51.364;7.246;2023-03-23T13:32:18;13.30;99.90
68051;DHT22;54839;51.364;7.246;2023-03-23T13:34:46;13.10;99.90
68051;DHT22;54839;51.364;7.246;2023-03-23T13:37:24;13.00;99.90
68051;DHT22;54839;51.364;7.246;2023-03-23T13:39:55;12.90;99.90
68051;DHT22;54839;51.364;7.246;2023-03-23T13:42:29;12.70;99.90
68051;DHT22;54839;51.364;7.246;2023-03-23T13:45:19;12.80;99.90
68051;DHT22;54839;51.364;7.246;2023-03-23T13:47:46;12.70;99.90
68051;DHT22;54839;51.364;7.246;2023-03-23T14:05:59;12.00;99.90
68051;DHT22;54839;51.364;7.246;2023-03-23T14:10:59;12.00;99.90
68051;DHT22;54839;51.364;7.246;2023-03-23T14:13:37;12.00;99.90
68051;DHT22;54839;51.364;7.246;2023-03-23T14:19:00;11.70;99.90
68051;DHT22;54839;51.364;7.246;2023-03-23T14:21:38;11.70;99.90
68051;DHT22;54839;51.364;7.246;2023-03-23T14:24:10;11.80;99.90
68051;DHT22;54839;51.364;7.246;2023-03-23T14:26:37;11.90;99.90
68051;DHT22;54839;51.364;7.246;2023-03-23T14:29:04;11.90;99.90
68051;DHT22;54839;51.364;7.246;2023-03-23T14:31:31;11.80;99.90
68051;DHT22;54839;51.364;7.246;2023-03-23T14:34:02;11.80;99.90
68051;DHT22;54839;51.364;7.246;2023-03-23T14:36:29;12.00;99.90
68051;DHT22;54839;51.364;7.246;2023-03-23T14:41:29;13.80;99.90
68051;DHT22;54839;51.364;7.246;2023-03-23T14:43:55;13.70;99.90
68051;DHT22;54839;51.364;7.246;2023-03-23T14:46:21;14.10;99.90
68051;DHT22;54839;51.364;7.246;2023-03-23T14:48:47;15.70;99.90
68051;DHT22;54839;51.364;7.246;2023-03-23T14:51:21;15.40;99.90
68051;DHT22;54839;51.364;7.246;2023-03-23T14:53:47;16.70;99.90
68051;DHT22;54839;51.364;7.246;2023-03-23T14:56:21;17.20;99.90
68051;DHT22;54839;51.364;7.246;2023-03-23T14:58:50;17.70;99.90
68051;DHT22;54839;51.364;7.246;2023-03-23T15:01:23;18.50;99.90
68051;DHT22;54839;51.364;7.246;2023-03-23T15:03:57;17.50;99.90
68051;DHT22;54839;51.364;7.246;2023-03-23T15:06:26;15.70;99.90
68051;DHT22;54839;51.364;7.246;2023-03-23T15:08:54;15.70;99.90
68051;DHT22;54839;51.364;7.246;2023-03-23T15:11:29;17.00;99.90
68051;DHT22;54839;51.364;7.246;2023-03-23T15:13:59;17.30;99.90
68051;DHT22;54839;51.364;7.246;2023-03-23T15:16:30;16.20;99.90
68051;DHT22;54839;51.364;7.246;2023-03-23T15:19:20;15.00;99.90
68051;DHT22;54839;51.364;7.246;2023-03-23T15:21:54;14.20;99.90
68051;DHT22;54839;51.364;7.246;2023-03-23T15:26:52;15.10;99.90
68051;DHT22;54839;51.364;7.246;2023-03-23T15:29:21;14.60;99.90
68051;DHT22;54839;51.364;7.246;2023-03-23T15:31:53;14.10;99.90
68051;DHT22;54839;51.364;7.246;2023-03-23T15:36:56;14.80;99.90
68051;DHT22;54839;51.364;7.246;2023-03-23T15:39:23;14.80;99.90
68051;DHT22;54839;51.364;7.246;2023-03-23T15:41:51;15.40;99.90
68051;DHT22;54839;51.364;7.246;2023-03-23T15:44:29;15.40;99.90
68051;DHT22;54839;51.364;7.246;2023-03-23T15:47:33;15.80;99.90
68051;DHT22;54839;51.364;7.246;2023-03-23T15:50:31;17.80;99.90
68051;DHT22;54839;51.364;7.246;2023-03-23T15:52:57;18.20;99.90
68051;DHT22;54839;51.364;7.246;2023-03-23T15:55:34;17.50;99.90
68051;DHT22;54839;51.364;7.246;2023-03-23T15:58:09;17.90;99.90
68051;DHT22;54839;51.364;7.246;2023-03-23T16:00:35;18.10;99.90
68051;DHT22;54839;51.364;7.246;2023-03-23T16:03:04;17.30;99.90
68051;DHT22;54839;51.364;7.246;2023-03-23T16:05:30;17.30;99.90
68051;DHT22;54839;51.364;7.246;2023-03-23T16:07:56;16.70;99.90
68051;DHT22;54839;51.364;7.246;2023-03-23T16:10:23;16.10;99.90
68051;DHT22;54839;51.364;7.246;2023-03-23T16:12:49;17.10;99.90
68051;DHT22;54839;51.364;7.246;2023-03-23T16:15:15;16.30;99.90
68051;DHT22;54839;51.364;7.246;2023-03-23T16:17:41;15.90;99.90
68051;DHT22;54839;51.364;7.246;2023-03-23T16:20:16;15.20;99.90
68051;DHT22;54839;51.364;7.246;2023-03-23T16:22:42;15.10;99.90
68051;DHT22;54839;51.364;7.246;2023-03-23T16:25:08;15.10;99.90
68051;DHT22;54839;51.364;7.246;2023-03-23T16:27:34;14.90;99.90
68051;DHT22;54839;51.364;7.246;2023-03-23T16:30:01;14.60;99.90
68051;DHT22;54839;51.364;7.246;2023-03-23T16:32:28;14.40;99.90
68051;DHT22;54839;51.364;7.246;2023-03-23T16:34:53;14.40;99.90
68051;DHT22;54839;51.364;7.246;2023-03-23T16:37:20;14.50;99.90
68051;DHT22;54839;51.364;7.246;2023-03-23T16:39:46;14.50;99.90
68051;DHT22;54839;51.364;7.246;2023-03-23T16:42:11;14.60;99.90
68051;DHT22;54839;51.364;7.246;2023-03-23T16:44:37;14.50;99.90
68051;DHT22;54839;51.364;7.246;2023-03-23T16:47:02;14.50;99.90
68051;DHT22;54839;51.364;7.246;2023-03-23T16:49:28;14.10;99.90
68051;DHT22;54839;51.364;7.246;2023-03-23T16:51:54;13.90;99.90
68051;DHT22;54839;51.364;7.246;2023-03-23T16:54:19;13.80;99.90
68051;DHT22;54839;51.364;7.246;2023-03-23T16:56:45;13.70;99.90
68051;DHT22;54839;51.364;7.246;2023-03-23T16:59:13;13.70;99.90
68051;DHT22;54839;51.364;7.246;2023-03-23T17:01:39;13.70;99.90
68051;DHT22;54839;51.364;7.246;2023-03-23T17:04:06;13.60;99.90
68051;DHT22;54839;51.364;7.246;2023-03-23T17:06:31;13.60;99.90
68051;DHT22;54839;51.364;7.246;2023-03-23T17:08:57;13.50;99.90
68051;DHT22;54839;51.364;7.246;2023-03-23T17:11:23;13.40;99.90
68051;DHT22;54839;51.364;7.246;2023-03-23T17:13:48;13.40;99.90
68051;DHT22;54839;51.364;7.246;2023-03-23T17:16:14;13.40;99.90
68051;DHT22;54839;51.364;7.246;2023-03-23T17:18:39;13.30;99.90
68051;DHT22;54839;51.364;7.246;2023-03-23T17:21:05;13.30;99.90
68051;DHT22;54839;51.364;7.246;2023-03-23T17:23:31;13.30;99.90
68051;DHT22;54839;51.364;7.246;2023-03-23T17:25:57;13.10;99.90